createdAt,value
2023-05-04T00:02:12.921Z,65.07
2023-05-04T00:04:42.970Z,63.17
2023-05-04T00:07:10.990Z,64.33
2023-05-04T00:09:39.044Z,64.77
2023-05-04T00:12:08.153Z,63.76
2023-05-04T00:14:37.504Z,63.24
2023-05-04T00:17:06.905Z,63.54
2023-05-04T00:19:36.159Z,65.26
2023-05-04T00:22:03.932Z,64.03
2023-05-04T00:24:31.773Z,64.25
2023-05-04T00:26:59.751Z,64.23
2023-05-04T00:29:27.503Z,64.09
2023-05-04T00:31:55.290Z,64.11
2023-05-04T00:34:23.099Z,64.78
2023-05-04T00:36:50.944Z,65.45
2023-05-04T00:39:18.716Z,67.01
2023-05-04T00:41:46.510Z,66.12
2023-05-04T00:44:14.577Z,67.46
2023-05-04T00:46:42.699Z,65.60
2023-05-04T00:49:10.723Z,68.38
2023-05-04T00:51:38.534Z,68.19
2023-05-04T00:54:06.378Z,64.96
2023-05-04T00:56:41.168Z,65.39
2023-05-04T00:59:09.439Z,66.33
2023-05-04T01:01:37.425Z,64.87
2023-05-04T01:04:05.926Z,67.07
2023-05-04T01:06:52.947Z,66.31
2023-05-04T01:10:05.752Z,65.66
2023-05-04T01:12:48.091Z,65.64
2023-05-04T01:15:16.382Z,66.90
2023-05-04T01:17:44.265Z,66.88
2023-05-04T01:20:12.512Z,65.79
2023-05-04T01:22:40.788Z,66.96
2023-05-04T01:25:09.612Z,66.39
2023-05-04T01:27:50.549Z,67.80
2023-05-04T01:30:26.210Z,66.89
2023-05-04T01:32:55.859Z,66.40
2023-05-04T01:35:25.826Z,67.45
2023-05-04T01:37:54.424Z,68.38
2023-05-04T01:40:22.275Z,68.10
2023-05-04T01:42:50.179Z,68.67
2023-05-04T01:45:18.196Z,69.62
2023-05-04T01:47:46.524Z,69.05
2023-05-04T01:50:14.645Z,68.70
2023-05-04T01:52:42.360Z,67.85
2023-05-04T01:55:10.387Z,66.88
2023-05-04T01:57:38.174Z,66.95
2023-05-04T02:00:07.075Z,66.92
2023-05-04T02:02:35.150Z,67.16
2023-05-04T02:05:03.063Z,66.72
2023-05-04T02:07:30.934Z,66.57
2023-05-04T02:09:58.692Z,69.54
2023-05-04T02:12:26.456Z,68.53
2023-05-04T02:14:54.319Z,67.51
2023-05-04T02:17:22.087Z,68.06
2023-05-04T02:19:49.860Z,67.67
2023-05-04T02:22:17.719Z,67.87
2023-05-04T02:24:45.578Z,68.52
2023-05-04T02:27:13.341Z,67.47
2023-05-04T02:29:41.121Z,67.79
2023-05-04T02:32:08.980Z,68.04
2023-05-04T02:34:37.052Z,67.73
2023-05-04T02:37:07.358Z,68.93
2023-05-04T02:39:35.679Z,68.14
2023-05-04T02:42:03.728Z,68.32
2023-05-04T02:44:31.580Z,67.70
2023-05-04T02:46:59.554Z,68.95
2023-05-04T02:49:27.276Z,69.62
2023-05-04T02:51:55.086Z,69.74
2023-05-04T02:54:22.842Z,68.27
2023-05-04T02:56:50.811Z,68.67
2023-05-04T02:59:18.689Z,68.10
2023-05-04T03:01:46.520Z,67.87
2023-05-04T03:04:14.533Z,68.01
2023-05-04T03:06:42.579Z,69.14
2023-05-04T03:09:10.660Z,69.10
2023-05-04T03:11:38.416Z,67.87
2023-05-04T03:14:06.895Z,70.09
2023-05-04T03:16:35.223Z,71.78
2023-05-04T03:19:03.344Z,72.35
2023-05-04T03:21:31.207Z,69.70
2023-05-04T03:23:59.287Z,69.27
2023-05-04T03:26:27.144Z,69.09
2023-05-04T03:28:54.912Z,69.51
2023-05-04T03:31:22.917Z,68.96
2023-05-04T03:33:50.748Z,68.80
2023-05-04T03:36:19.025Z,68.94
2023-05-04T03:38:46.887Z,69.34
2023-05-04T03:41:14.686Z,70.00
2023-05-04T03:43:43.029Z,71.65
2023-05-04T03:46:11.783Z,70.57
2023-05-04T03:48:40.317Z,69.53
2023-05-04T03:51:08.479Z,68.97
2023-05-04T03:53:36.436Z,69.51
2023-05-04T03:56:04.708Z,69.03
2023-05-04T03:58:32.432Z,70.33
2023-05-04T04:01:03.530Z,73.48
2023-05-04T04:03:31.745Z,71.02
2023-05-04T04:05:59.762Z,70.59
2023-05-04T04:08:27.622Z,69.83
2023-05-04T04:10:55.521Z,69.88
2023-05-04T04:13:23.352Z,70.06
2023-05-04T04:15:51.235Z,69.67
2023-05-04T04:18:19.086Z,69.92
2023-05-04T04:20:47.055Z,69.68
2023-05-04T04:23:18.719Z,70.62
2023-05-04T04:25:46.994Z,69.38
2023-05-04T04:28:14.852Z,69.68
2023-05-04T04:30:43.021Z,69.10
2023-05-04T04:33:11.037Z,69.14
2023-05-04T04:35:38.990Z,69.51
2023-05-04T04:38:07.252Z,69.88
2023-05-04T04:40:34.969Z,68.91
2023-05-04T04:43:03.311Z,69.28
2023-05-04T04:45:33.626Z,69.42
2023-05-04T04:48:01.986Z,68.93
2023-05-04T04:50:30.335Z,68.76
2023-05-04T04:52:58.237Z,69.00
2023-05-04T04:55:26.463Z,68.83
2023-05-04T04:57:55.747Z,68.20
2023-05-04T05:00:24.345Z,68.17
2023-05-04T05:02:52.204Z,68.26
2023-05-04T05:05:20.030Z,68.16
2023-05-04T05:07:47.892Z,67.95
2023-05-04T05:10:16.272Z,68.40
2023-05-04T05:12:44.211Z,67.54
2023-05-04T05:15:11.996Z,67.37
2023-05-04T05:17:39.809Z,67.60
2023-05-04T05:20:11.474Z,67.48
2023-05-04T05:22:39.507Z,67.53
2023-05-04T05:25:08.531Z,67.01
2023-05-04T05:27:36.854Z,67.51
2023-05-04T05:30:06.549Z,67.04
2023-05-04T05:32:34.899Z,67.02
2023-05-04T05:35:02.660Z,66.95
2023-05-04T05:37:32.438Z,66.85
2023-05-04T05:40:00.297Z,66.68
2023-05-04T05:42:30.534Z,66.89
2023-05-04T05:44:58.366Z,66.73
2023-05-04T05:47:26.157Z,66.54
2023-05-04T05:49:54.722Z,66.51
2023-05-04T05:52:23.102Z,66.15
2023-05-04T05:54:51.066Z,66.24
2023-05-04T05:57:18.929Z,66.34
2023-05-04T05:59:47.601Z,66.10
2023-05-04T06:02:15.452Z,66.56
2023-05-04T06:04:46.508Z,66.05
2023-05-04T06:07:14.601Z,65.57
2023-05-04T06:09:42.568Z,65.69
2023-05-04T06:12:13.706Z,65.03
2023-05-04T06:14:41.509Z,64.94
2023-05-04T06:17:10.045Z,65.36
2023-05-04T06:19:38.586Z,65.19
2023-05-04T06:22:06.509Z,64.75
2023-05-04T06:24:34.471Z,64.45
2023-05-04T06:27:02.521Z,64.49
2023-05-04T06:29:30.734Z,63.98
2023-05-04T06:31:59.225Z,63.63
2023-05-04T06:34:27.586Z,63.62
2023-05-04T06:36:55.783Z,63.01
2023-05-04T06:39:24.364Z,62.25
2023-05-04T06:41:55.772Z,62.59
2023-05-04T06:44:24.122Z,62.29
2023-05-04T06:46:52.395Z,61.29
2023-05-04T06:49:20.760Z,61.31
2023-05-04T06:51:48.915Z,61.34
2023-05-04T06:54:16.846Z,60.92
2023-05-04T06:56:45.390Z,60.87
2023-05-04T06:59:13.573Z,60.98
2023-05-04T07:01:42.573Z,59.50
2023-05-04T07:04:11.066Z,59.65
2023-05-04T07:06:39.917Z,59.32
2023-05-04T07:09:08.612Z,58.46
2023-05-04T07:11:36.911Z,59.52
2023-05-04T07:14:05.102Z,59.72
2023-05-04T07:16:34.584Z,58.71
2023-05-04T07:19:03.021Z,58.95
2023-05-04T07:21:31.217Z,58.34
2023-05-04T07:23:59.456Z,57.83
2023-05-04T07:26:27.934Z,57.32
2023-05-04T07:28:56.207Z,57.18
2023-05-04T07:31:24.498Z,57.24
2023-05-04T07:33:53.282Z,56.93
2023-05-04T07:36:21.618Z,55.33
2023-05-04T07:38:49.753Z,55.36
2023-05-04T07:41:18.222Z,56.22
2023-05-04T07:43:46.732Z,55.53
2023-05-04T07:46:14.521Z,54.97
2023-05-04T07:48:42.498Z,53.87
2023-05-04T07:51:14.915Z,54.02
2023-05-04T07:53:43.845Z,53.89
2023-05-04T07:56:13.368Z,54.02
2023-05-04T07:58:42.235Z,54.00
2023-05-04T08:01:10.097Z,53.62
2023-05-04T08:03:38.422Z,53.53
2023-05-04T08:06:07.965Z,52.79
2023-05-04T08:08:35.933Z,53.18
2023-05-04T08:11:18.698Z,52.99
2023-05-04T08:13:51.078Z,52.94
2023-05-04T08:16:18.781Z,52.87
2023-05-04T08:18:46.654Z,52.16
2023-05-04T08:21:16.790Z,52.08
2023-05-04T08:23:44.627Z,52.73
2023-05-04T08:26:15.813Z,52.12
2023-05-04T08:28:46.758Z,52.28
2023-05-04T08:31:16.316Z,52.10
2023-05-04T08:33:46.747Z,51.35
2023-05-04T08:36:15.888Z,51.83
2023-05-04T08:38:44.268Z,51.84
2023-05-04T08:41:12.940Z,51.37
2023-05-04T08:43:41.224Z,51.08
2023-05-04T08:46:12.047Z,50.98
2023-05-04T08:48:43.423Z,49.67
2023-05-04T08:51:12.545Z,49.98
2023-05-04T08:53:47.646Z,49.54
2023-05-04T08:56:18.139Z,49.42
2023-05-04T08:58:52.114Z,48.38
2023-05-04T09:01:22.691Z,47.91
2023-05-04T09:03:52.885Z,47.39
2023-05-04T09:06:22.414Z,47.61
2023-05-04T09:08:51.541Z,47.40
2023-05-04T09:11:20.345Z,45.70
2023-05-04T09:13:49.442Z,45.56
2023-05-04T09:16:20.193Z,45.32
2023-05-04T09:18:49.950Z,45.96
2023-05-04T09:21:31.007Z,45.06
2023-05-04T09:24:00.498Z,45.39
2023-05-04T09:26:35.950Z,44.53
2023-05-04T09:29:14.192Z,44.17
2023-05-04T09:31:53.043Z,43.81
2023-05-04T09:34:23.047Z,42.64
2023-05-04T09:37:02.884Z,44.06
2023-05-04T09:39:31.907Z,43.73
2023-05-04T09:42:01.096Z,44.46
2023-05-04T09:44:30.117Z,44.25
2023-05-04T09:46:59.577Z,44.17
2023-05-04T09:49:36.262Z,44.16
2023-05-04T09:52:07.410Z,42.05
2023-05-04T09:54:36.552Z,42.10
2023-05-04T09:57:15.705Z,43.15
2023-05-04T09:59:44.646Z,42.37
2023-05-04T10:02:22.872Z,42.20
2023-05-04T10:04:53.562Z,42.13
2023-05-04T10:07:23.429Z,41.77
2023-05-04T10:09:53.649Z,41.88
2023-05-04T10:12:22.462Z,41.18
2023-05-04T10:14:51.410Z,40.94
2023-05-04T10:17:39.331Z,41.54
2023-05-04T10:20:30.697Z,41.05
2023-05-04T10:23:28.855Z,39.88
2023-05-04T10:26:50.806Z,39.49
2023-05-04T10:29:25.037Z,39.77
2023-05-04T10:31:53.957Z,40.09
2023-05-04T10:34:28.346Z,38.24
2023-05-04T10:37:00.032Z,38.18
2023-05-04T10:39:32.481Z,37.93
2023-05-04T10:42:06.189Z,37.76
2023-05-04T10:44:37.678Z,38.62
2023-05-04T10:47:09.243Z,37.94
2023-05-04T10:49:40.628Z,37.90
2023-05-04T10:52:09.998Z,38.50
2023-05-04T10:54:41.702Z,38.08
2023-05-04T10:57:17.812Z,37.71
2023-05-04T10:59:59.725Z,37.86
2023-05-04T11:02:30.963Z,37.60
2023-05-04T11:05:04.948Z,36.23
2023-05-04T11:07:37.974Z,37.10
2023-05-04T11:10:09.886Z,36.31
2023-05-04T11:12:39.326Z,35.82
2023-05-04T11:15:09.546Z,34.67
2023-05-04T11:17:52.056Z,36.04
2023-05-04T11:20:27.706Z,35.72
2023-05-04T11:22:56.734Z,35.58
2023-05-04T11:25:30.822Z,35.76
2023-05-04T11:28:00.189Z,35.13
2023-05-04T11:30:35.127Z,34.74
2023-05-04T11:33:11.973Z,32.93
2023-05-04T11:35:42.608Z,33.78
2023-05-04T11:38:11.493Z,33.87
2023-05-04T11:40:41.671Z,34.12
2023-05-04T11:43:11.916Z,34.38
2023-05-04T11:45:41.697Z,34.89
2023-05-04T11:48:10.598Z,34.88
2023-05-04T11:50:39.106Z,34.77
2023-05-04T11:53:21.736Z,34.72
2023-05-04T11:55:50.761Z,34.33
2023-05-04T11:58:25.986Z,34.02
2023-05-04T12:00:58.737Z,33.78
2023-05-04T12:06:07.579Z,33.92
2023-05-04T12:08:42.556Z,33.71
2023-05-04T12:11:25.915Z,33.78
2023-05-04T12:14:12.086Z,33.95
2023-05-04T12:16:41.597Z,33.70
2023-05-04T12:19:11.589Z,34.03
2023-05-04T12:21:53.945Z,33.98
2023-05-04T12:24:24.142Z,33.85
2023-05-04T12:26:52.903Z,34.20
2023-05-04T12:29:21.538Z,33.91
2023-05-04T12:31:49.898Z,32.95
2023-05-04T12:34:18.848Z,31.73
2023-05-04T12:36:47.166Z,31.57
2023-05-04T12:39:15.338Z,32.21
2023-05-04T12:41:43.897Z,32.50
2023-05-04T12:44:14.816Z,32.56
2023-05-04T12:46:46.263Z,32.59
2023-05-04T12:49:14.785Z,32.36
2023-05-04T12:51:44.275Z,31.99
2023-05-04T12:54:12.761Z,32.48
2023-05-04T12:56:41.224Z,32.56
2023-05-04T12:59:09.792Z,32.55
2023-05-04T13:01:40.383Z,32.61
2023-05-04T13:04:08.333Z,31.89
2023-05-04T13:06:36.515Z,32.19
2023-05-04T13:09:06.154Z,32.14
2023-05-04T13:11:34.544Z,32.27
2023-05-04T13:14:02.557Z,31.51
2023-05-04T13:16:31.641Z,32.17
2023-05-04T13:18:59.957Z,32.15
2023-05-04T13:21:27.704Z,32.42
2023-05-04T13:23:55.798Z,32.16
2023-05-04T13:26:23.759Z,31.91
2023-05-04T13:28:51.887Z,32.21
2023-05-04T13:31:19.860Z,31.76
2023-05-04T13:33:50.494Z,31.91
2023-05-04T13:36:18.381Z,31.40
2023-05-04T13:38:46.241Z,31.72
2023-05-04T13:41:16.334Z,31.26
2023-05-04T13:43:44.231Z,30.21
2023-05-04T13:46:12.360Z,31.09
2023-05-04T13:48:40.169Z,30.74
2023-05-04T13:51:07.958Z,30.64
2023-05-04T13:53:35.791Z,29.92
2023-05-04T13:56:04.000Z,30.15
2023-05-04T13:58:31.856Z,30.47
2023-05-04T14:01:00.682Z,30.29
2023-05-04T14:03:31.547Z,30.54
2023-05-04T14:05:59.385Z,30.20
2023-05-04T14:08:27.173Z,30.68
2023-05-04T14:10:55.185Z,30.87
2023-05-04T14:13:23.464Z,31.05
2023-05-04T14:15:51.211Z,30.04
2023-05-04T14:18:19.069Z,30.22
2023-05-04T14:20:48.543Z,29.95
2023-05-04T14:23:16.396Z,30.66
2023-05-04T14:25:50.562Z,30.50
2023-05-04T14:28:18.796Z,30.08
2023-05-04T14:30:46.734Z,30.23
2023-05-04T14:33:14.648Z,30.33
2023-05-04T14:35:44.670Z,30.43
2023-05-04T14:38:14.171Z,30.14
2023-05-04T14:40:42.345Z,29.81
2023-05-04T14:43:10.213Z,30.05
2023-05-04T14:45:38.668Z,30.09
2023-05-04T14:48:08.820Z,29.97
2023-05-04T14:50:36.777Z,30.01
2023-05-04T14:53:04.558Z,30.09
2023-05-04T14:55:33.772Z,29.70
2023-05-04T14:58:01.539Z,30.07
2023-05-04T15:00:29.367Z,29.56
2023-05-04T15:02:57.257Z,30.21
2023-05-04T15:05:25.098Z,30.21
2023-05-04T15:07:55.403Z,29.42
2023-05-04T15:10:23.190Z,29.28
2023-05-04T15:12:51.740Z,29.40
2023-05-04T15:15:25.047Z,29.76
2023-05-04T15:17:55.886Z,29.58
2023-05-04T15:20:24.718Z,29.54
2023-05-04T15:22:53.998Z,29.21
2023-05-04T15:25:25.233Z,29.40
2023-05-04T15:27:53.866Z,29.15
2023-05-04T15:30:21.931Z,29.35
2023-05-04T15:32:50.172Z,29.26
2023-05-04T15:35:18.805Z,29.25
2023-05-04T15:37:46.636Z,29.09
2023-05-04T15:40:14.391Z,29.24
2023-05-04T15:42:42.136Z,29.09
2023-05-04T15:45:10.710Z,29.22
2023-05-04T15:47:38.931Z,29.33
2023-05-04T15:50:07.276Z,29.44
2023-05-04T15:52:35.336Z,29.20
2023-05-04T15:55:13.109Z,29.45
2023-05-04T15:57:51.376Z,29.44
2023-05-04T16:00:19.877Z,29.52
2023-05-04T16:02:48.020Z,29.39
2023-05-04T16:05:15.901Z,29.34
2023-05-04T16:07:45.356Z,29.24
2023-05-04T16:10:13.179Z,29.01
2023-05-04T16:12:41.372Z,28.49
2023-05-04T16:15:11.910Z,28.69
2023-05-04T16:17:40.107Z,28.87
2023-05-04T16:20:09.034Z,29.10
2023-05-04T16:22:37.307Z,29.19
2023-05-04T16:25:05.540Z,29.21
2023-05-04T16:27:33.407Z,29.10
2023-05-04T16:30:01.291Z,29.16
2023-05-04T16:32:29.030Z,28.68
2023-05-04T16:34:56.818Z,29.20
2023-05-04T16:37:25.028Z,29.58
2023-05-04T16:39:55.062Z,29.16
2023-05-04T16:42:23.257Z,29.35
2023-05-04T16:44:51.777Z,28.90
2023-05-04T16:47:20.604Z,28.78
2023-05-04T16:49:49.084Z,29.06
2023-05-04T16:52:17.887Z,28.93
2023-05-04T16:54:45.906Z,29.11
2023-05-04T16:57:14.056Z,28.79
2023-05-04T16:59:42.102Z,29.12
2023-05-04T17:02:10.450Z,29.52
2023-05-04T17:04:38.982Z,29.65
2023-05-04T17:07:10.653Z,29.75
2023-05-04T17:09:39.338Z,30.21
2023-05-04T17:12:07.740Z,30.49
2023-05-04T17:14:36.273Z,30.77
2023-05-04T17:17:04.639Z,30.54
2023-05-04T17:19:33.319Z,31.35
2023-05-04T17:22:02.190Z,30.91
2023-05-04T17:24:30.463Z,31.23
2023-05-04T17:26:58.899Z,31.40
2023-05-04T17:29:27.222Z,31.77
2023-05-04T17:31:55.367Z,31.86
2023-05-04T17:34:23.891Z,32.50
2023-05-04T17:36:51.879Z,32.25
2023-05-04T17:39:19.861Z,33.16
2023-05-04T17:41:49.188Z,32.73
2023-05-04T17:44:17.733Z,34.02
2023-05-04T17:46:45.920Z,34.99
2023-05-04T17:49:14.199Z,34.19
2023-05-04T17:51:42.652Z,33.71
2023-05-04T17:54:11.083Z,33.72
2023-05-04T17:56:39.420Z,34.26
2023-05-04T17:59:07.672Z,34.11
2023-05-04T18:01:36.118Z,34.98
2023-05-04T18:04:04.411Z,35.00
2023-05-04T18:06:33.056Z,36.09
2023-05-04T18:09:01.141Z,35.80
2023-05-04T18:11:28.979Z,36.86
2023-05-04T18:13:57.131Z,36.82
2023-05-04T18:16:25.915Z,37.46
2023-05-04T18:18:54.032Z,38.29
2023-05-04T18:21:21.945Z,38.79
2023-05-04T18:23:50.096Z,38.21
2023-05-04T18:26:22.858Z,37.62
2023-05-04T18:28:50.971Z,38.31
2023-05-04T18:31:19.223Z,38.27
2023-05-04T18:33:47.390Z,38.35
2023-05-04T18:36:15.550Z,37.83
2023-05-04T18:38:43.683Z,40.38
2023-05-04T18:41:12.106Z,39.73
2023-05-04T18:43:40.405Z,40.17
2023-05-04T18:46:08.723Z,40.74
2023-05-04T18:48:36.899Z,40.99
2023-05-04T18:51:05.324Z,39.64
2023-05-04T18:53:33.697Z,40.31
2023-05-04T18:56:06.701Z,41.59
2023-05-04T18:58:37.252Z,43.01
2023-05-04T19:01:06.201Z,42.54
2023-05-04T19:03:34.375Z,42.01
2023-05-04T19:06:02.364Z,43.00
2023-05-04T19:08:30.165Z,44.58
2023-05-04T19:11:03.108Z,44.41
2023-05-04T19:13:31.396Z,44.31
2023-05-04T19:15:59.149Z,44.66
2023-05-04T19:18:26.999Z,43.72
2023-05-04T19:20:54.855Z,44.62
2023-05-04T19:23:22.702Z,44.60
2023-05-04T19:25:50.468Z,44.25
2023-05-04T19:28:18.339Z,44.52
2023-05-04T19:30:46.525Z,44.60
2023-05-04T19:33:14.737Z,45.39
2023-05-04T19:35:42.856Z,45.01
2023-05-04T19:38:10.659Z,45.17
2023-05-04T19:40:39.123Z,45.53
2023-05-04T19:43:08.199Z,45.87
2023-05-04T19:45:36.260Z,47.50
2023-05-04T19:48:04.987Z,46.10
2023-05-04T19:50:32.932Z,46.41
2023-05-04T19:53:00.861Z,46.81
2023-05-04T19:55:28.591Z,47.11
2023-05-04T19:57:56.368Z,47.26
2023-05-04T20:00:24.429Z,47.39
2023-05-04T20:02:52.234Z,47.36
2023-05-04T20:05:20.122Z,47.93
2023-05-04T20:07:47.895Z,48.84
2023-05-04T20:10:15.723Z,48.86
2023-05-04T20:12:43.600Z,47.78
2023-05-04T20:15:11.792Z,48.09
2023-05-04T20:17:39.612Z,48.90
2023-05-04T20:20:08.630Z,47.13
2023-05-04T20:22:38.424Z,47.70
2023-05-04T20:25:06.544Z,48.67
2023-05-04T20:27:38.525Z,47.48
2023-05-04T20:30:07.548Z,48.24
2023-05-04T20:32:35.661Z,47.38
2023-05-04T20:35:03.825Z,51.07
2023-05-04T20:37:31.659Z,48.11
2023-05-04T20:39:59.441Z,48.47
2023-05-04T20:42:27.156Z,48.54
2023-05-04T20:44:54.961Z,49.85
2023-05-04T20:47:22.863Z,49.30
2023-05-04T20:49:51.010Z,48.21
2023-05-04T20:52:18.880Z,50.71
2023-05-04T20:54:47.012Z,50.09
2023-05-04T20:57:14.813Z,50.42
2023-05-04T20:59:42.680Z,49.20
2023-05-04T21:02:10.741Z,49.38
2023-05-04T21:04:38.707Z,49.27
2023-05-04T21:07:06.917Z,49.22
2023-05-04T21:09:34.642Z,50.98
2023-05-04T21:12:03.118Z,51.97
2023-05-04T21:14:31.085Z,51.28
2023-05-04T21:16:59.052Z,51.52
2023-05-04T21:19:26.949Z,52.96
2023-05-04T21:21:54.890Z,52.96
2023-05-04T21:24:23.179Z,53.44
2023-05-04T21:26:51.368Z,54.33
2023-05-04T21:29:19.170Z,53.29
2023-05-04T21:31:47.086Z,52.72
2023-05-04T21:34:15.408Z,53.19
2023-05-04T21:36:44.671Z,53.76
2023-05-04T21:39:12.675Z,53.26
2023-05-04T21:41:40.445Z,54.14
2023-05-04T21:44:08.222Z,53.77
2023-05-04T21:46:36.431Z,54.78
2023-05-04T21:49:04.232Z,54.36
2023-05-04T21:51:31.993Z,54.05
2023-05-04T21:53:59.927Z,53.22
2023-05-04T21:56:27.732Z,53.52
2023-05-04T21:58:55.552Z,53.84
2023-05-04T22:01:23.447Z,53.13
2023-05-04T22:03:52.968Z,53.82
2023-05-04T22:06:22.138Z,52.96
2023-05-04T22:08:49.909Z,52.95
2023-05-04T22:11:17.645Z,53.68
2023-05-04T22:13:45.424Z,53.69
2023-05-04T22:16:16.005Z,53.57
2023-05-04T22:18:46.913Z,53.44
2023-05-04T22:21:14.736Z,53.60
2023-05-04T22:23:42.601Z,52.81
2023-05-04T22:26:10.388Z,52.59
2023-05-04T22:28:38.208Z,53.00
2023-05-04T22:31:06.131Z,52.93
2023-05-04T22:33:33.977Z,52.66
2023-05-04T22:36:01.938Z,53.37
2023-05-04T22:38:29.811Z,52.77
2023-05-04T22:40:57.572Z,53.03
2023-05-04T22:43:25.648Z,52.91
2023-05-04T22:45:53.424Z,53.29
2023-05-04T22:48:21.478Z,53.59
2023-05-04T22:50:49.447Z,53.52
2023-05-04T22:53:17.517Z,53.13
2023-05-04T22:55:45.335Z,53.59
2023-05-04T22:58:13.152Z,53.66
2023-05-04T23:00:41.006Z,54.11
2023-05-04T23:03:08.950Z,53.79
2023-05-04T23:05:37.557Z,53.82
2023-05-04T23:08:05.764Z,53.68
2023-05-04T23:10:33.607Z,53.88
2023-05-04T23:13:01.516Z,54.40
2023-05-04T23:15:29.357Z,54.10
2023-05-04T23:17:57.229Z,53.95
2023-05-04T23:20:25.367Z,53.87
2023-05-04T23:22:53.340Z,54.38
2023-05-04T23:25:21.192Z,54.42
2023-05-04T23:27:48.966Z,54.59
2023-05-04T23:30:16.828Z,54.84
2023-05-04T23:32:44.652Z,54.63
2023-05-04T23:35:12.699Z,55.10
2023-05-04T23:37:40.904Z,54.88
2023-05-04T23:40:09.518Z,54.85
2023-05-04T23:42:37.719Z,55.57
2023-05-04T23:45:06.592Z,55.20
2023-05-04T23:47:34.445Z,55.30
2023-05-04T23:50:02.181Z,56.26
2023-05-04T23:52:29.949Z,56.50
2023-05-04T23:54:57.927Z,55.79
2023-05-04T23:57:25.747Z,56.43
2023-05-04T23:59:53.609Z,56.18
